createdAt,value
2022-07-30T00:01:34.394Z,3.30
2022-07-30T00:04:03.074Z,2.90
2022-07-30T00:06:30.097Z,3.40
2022-07-30T00:08:56.770Z,3.22
2022-07-30T00:11:27.340Z,3.60
2022-07-30T00:13:54.644Z,3.22
2022-07-30T00:16:21.760Z,3.28
2022-07-30T00:18:48.503Z,2.92
2022-07-30T00:21:20.197Z,3.50
2022-07-30T00:24:02.520Z,3.78
2022-07-30T00:26:29.369Z,3.17
2022-07-30T00:28:56.657Z,3.10
2022-07-30T00:31:23.322Z,3.08
2022-07-30T00:33:50.021Z,3.30
2022-07-30T00:36:16.928Z,3.22
2022-07-30T00:38:43.702Z,3.45
2022-07-30T00:41:10.500Z,3.00
2022-07-30T00:43:37.237Z,3.20
2022-07-30T00:46:04.182Z,3.53
2022-07-30T00:48:31.032Z,3.50
2022-07-30T00:50:57.798Z,3.20
2022-07-30T00:53:24.591Z,3.30
2022-07-30T00:55:51.482Z,1.25
2022-07-30T00:58:18.181Z,1.20
2022-07-30T01:00:45.120Z,2.08
2022-07-30T01:03:11.860Z,1.20
2022-07-30T01:05:38.468Z,1.33
2022-07-30T01:08:05.075Z,2.00
2022-07-30T01:10:31.719Z,1.17
2022-07-30T01:12:59.306Z,1.23
2022-07-30T01:15:27.105Z,1.02
2022-07-30T01:17:56.885Z,1.20
2022-07-30T01:20:28.853Z,1.08
2022-07-30T01:23:08.244Z,1.48
2022-07-30T01:25:56.220Z,1.73
2022-07-30T01:28:31.349Z,1.48
2022-07-30T01:30:59.201Z,1.27
2022-07-30T01:33:27.909Z,1.98
2022-07-30T01:35:56.835Z,1.02
2022-07-30T01:38:25.639Z,1.25
2022-07-30T01:40:54.757Z,1.10
2022-07-30T01:43:24.064Z,1.40
2022-07-30T01:45:53.238Z,1.20
2022-07-30T01:48:22.417Z,0.93
2022-07-30T01:50:52.728Z,1.50
2022-07-30T01:53:24.032Z,1.20
2022-07-30T01:55:51.987Z,1.30
2022-07-30T01:58:21.741Z,1.00
2022-07-30T02:00:50.873Z,1.15
2022-07-30T02:03:18.396Z,1.02
2022-07-30T02:05:52.539Z,1.15
2022-07-30T02:08:35.227Z,1.30
2022-07-30T02:11:07.615Z,1.23
2022-07-30T02:13:43.680Z,1.15
2022-07-30T02:16:31.702Z,1.50
2022-07-30T02:19:06.776Z,1.27
2022-07-30T02:21:37.856Z,1.63
2022-07-30T02:24:18.397Z,1.20
2022-07-30T02:26:49.610Z,1.35
2022-07-30T02:29:18.509Z,1.33
2022-07-30T02:31:45.875Z,1.30
2022-07-30T02:34:14.115Z,1.65
2022-07-30T02:36:43.384Z,1.27
2022-07-30T02:39:15.061Z,1.15
2022-07-30T02:41:49.232Z,0.95
2022-07-30T02:44:20.352Z,1.20
2022-07-30T02:46:49.499Z,1.20
2022-07-30T02:49:19.623Z,1.00
2022-07-30T02:51:48.396Z,1.75
2022-07-30T02:54:17.874Z,1.40
2022-07-30T02:56:47.803Z,1.10
2022-07-30T02:59:16.399Z,1.05
2022-07-30T03:01:44.229Z,0.93
2022-07-30T03:04:12.061Z,1.38
2022-07-30T03:06:40.491Z,1.42
2022-07-30T03:09:09.931Z,1.40
2022-07-30T03:11:37.187Z,1.50
2022-07-30T03:14:03.952Z,1.58
2022-07-30T03:16:33.649Z,1.60
2022-07-30T03:19:02.738Z,0.98
2022-07-30T03:21:35.763Z,1.45
2022-07-30T03:24:05.156Z,1.20
2022-07-30T03:26:33.761Z,1.55
2022-07-30T03:29:01.605Z,1.27
2022-07-30T03:31:36.524Z,1.25
2022-07-30T03:34:06.500Z,1.73
2022-07-30T03:36:35.041Z,1.20
2022-07-30T03:39:03.273Z,1.48
2022-07-30T03:41:31.304Z,1.40
2022-07-30T03:43:59.856Z,1.40
2022-07-30T03:46:27.943Z,1.38
2022-07-30T03:48:55.278Z,1.05
2022-07-30T03:51:22.248Z,1.13
2022-07-30T03:53:51.620Z,1.33
2022-07-30T03:56:18.541Z,1.30
2022-07-30T03:58:45.496Z,1.45
2022-07-30T04:01:12.544Z,1.23
2022-07-30T04:03:39.542Z,1.30
2022-07-30T04:06:06.479Z,1.58
2022-07-30T04:08:33.216Z,1.40
2022-07-30T04:10:59.873Z,1.95
2022-07-30T04:13:26.507Z,1.27
2022-07-30T04:16:40.882Z,1.30
2022-07-30T04:18:53.740Z,1.15
2022-07-30T04:21:23.225Z,1.20
2022-07-30T04:24:04.474Z,1.25
2022-07-30T04:26:36.949Z,1.33
2022-07-30T04:29:07.315Z,1.20
2022-07-30T04:31:38.474Z,1.35
2022-07-30T04:34:08.102Z,1.10
2022-07-30T04:36:35.935Z,1.50
2022-07-30T04:39:04.138Z,1.63
2022-07-30T04:41:35.419Z,1.70
2022-07-30T04:44:16.392Z,1.63
2022-07-30T04:46:43.106Z,1.65
2022-07-30T04:49:11.630Z,1.48
2022-07-30T04:51:38.694Z,1.27
2022-07-30T04:54:09.005Z,2.05
2022-07-30T04:56:50.192Z,1.67
2022-07-30T04:59:23.714Z,1.38
2022-07-30T05:01:52.521Z,1.60
2022-07-30T05:04:22.653Z,1.75
2022-07-30T05:06:50.061Z,1.70
2022-07-30T05:09:17.679Z,2.10
2022-07-30T05:11:51.328Z,1.60
2022-07-30T05:14:18.010Z,1.70
2022-07-30T05:16:44.651Z,1.90
2022-07-30T05:19:11.924Z,2.03
2022-07-30T05:21:38.580Z,2.28
2022-07-30T05:24:06.191Z,1.60
2022-07-30T05:26:33.026Z,1.55
2022-07-30T05:28:59.691Z,1.77
2022-07-30T05:31:26.426Z,1.20
2022-07-30T05:33:57.530Z,1.70
2022-07-30T05:36:27.096Z,1.50
2022-07-30T05:38:53.783Z,1.60
2022-07-30T05:41:32.235Z,1.50
2022-07-30T05:44:00.809Z,1.15
2022-07-30T05:46:28.058Z,1.38
2022-07-30T05:48:54.777Z,1.67
2022-07-30T05:51:22.305Z,1.92
2022-07-30T05:53:49.348Z,1.58
2022-07-30T05:56:16.445Z,1.38
2022-07-30T05:58:43.539Z,1.60
2022-07-30T06:01:10.258Z,1.88
2022-07-30T06:03:38.734Z,1.70
2022-07-30T06:06:05.723Z,1.42
2022-07-30T06:08:32.479Z,1.40
2022-07-30T06:10:59.331Z,1.80
2022-07-30T06:13:26.105Z,1.40
2022-07-30T06:15:52.910Z,1.60
2022-07-30T06:18:19.920Z,1.55
2022-07-30T06:20:54.496Z,1.63
2022-07-30T06:23:21.934Z,1.88
2022-07-30T06:25:49.003Z,1.80
2022-07-30T06:28:36.432Z,1.63
2022-07-30T06:31:03.491Z,1.58
2022-07-30T06:33:30.224Z,2.15
2022-07-30T06:35:56.838Z,1.70
2022-07-30T06:38:23.485Z,1.80
2022-07-30T06:40:50.264Z,1.95
2022-07-30T06:43:19.066Z,1.60
2022-07-30T06:45:45.752Z,1.70
2022-07-30T06:48:12.415Z,1.48
2022-07-30T06:50:39.049Z,1.70
2022-07-30T06:53:05.586Z,1.27
2022-07-30T06:55:32.143Z,1.60
2022-07-30T06:57:58.834Z,1.25
2022-07-30T07:00:25.533Z,1.92
2022-07-30T07:02:52.074Z,1.58
2022-07-30T07:05:18.889Z,1.55
2022-07-30T07:07:56.581Z,2.90
2022-07-30T07:10:25.841Z,2.00
2022-07-30T07:12:52.528Z,1.30
2022-07-30T07:15:19.341Z,3.55
2022-07-30T07:17:49.145Z,3.72
2022-07-30T07:20:15.781Z,4.10
2022-07-30T07:22:42.343Z,4.10
2022-07-30T07:25:09.232Z,4.13
2022-07-30T07:27:37.239Z,6.13
2022-07-30T07:30:06.219Z,3.90
2022-07-30T07:32:34.663Z,3.85
2022-07-30T07:35:01.728Z,4.28
2022-07-30T07:37:28.381Z,4.40
2022-07-30T07:39:54.971Z,5.00
2022-07-30T07:42:22.200Z,4.88
2022-07-30T07:44:48.899Z,4.10
2022-07-30T07:47:15.534Z,4.00
2022-07-30T07:49:42.237Z,3.60
2022-07-30T07:52:09.215Z,3.83
2022-07-30T07:54:36.223Z,3.67
2022-07-30T07:57:10.515Z,3.80
2022-07-30T07:59:41.462Z,3.88
2022-07-30T08:02:08.939Z,3.80
2022-07-30T08:04:36.707Z,3.72
2022-07-30T08:07:04.391Z,4.07
2022-07-30T08:09:42.637Z,3.47
2022-07-30T08:12:12.294Z,3.40
2022-07-30T08:14:39.201Z,3.30
2022-07-30T08:17:06.377Z,3.72
2022-07-30T08:19:34.071Z,3.47
2022-07-30T08:22:00.741Z,4.50
2022-07-30T08:24:27.559Z,3.25
2022-07-30T08:26:54.439Z,3.55
2022-07-30T08:29:21.245Z,3.60
2022-07-30T08:31:50.644Z,2.97
2022-07-30T08:34:18.202Z,2.65
2022-07-30T08:36:44.978Z,3.58
2022-07-30T08:39:14.369Z,3.30
2022-07-30T08:41:42.412Z,3.50
2022-07-30T08:44:13.096Z,3.30
2022-07-30T08:46:42.525Z,3.47
2022-07-30T08:49:16.039Z,3.22
2022-07-30T08:51:42.786Z,3.47
2022-07-30T08:54:10.029Z,3.67
2022-07-30T08:56:37.260Z,3.90
2022-07-30T08:59:04.466Z,3.88
2022-07-30T09:01:31.044Z,3.45
2022-07-30T09:03:57.919Z,3.20
2022-07-30T09:06:24.615Z,3.17
2022-07-30T09:08:51.185Z,3.70
2022-07-30T09:11:17.842Z,8.07
2022-07-30T09:13:45.121Z,3.45
2022-07-30T09:16:24.058Z,7.15
2022-07-30T09:18:51.879Z,2.88
2022-07-30T09:21:27.462Z,3.00
2022-07-30T09:23:58.130Z,3.35
2022-07-30T09:26:25.305Z,3.80
2022-07-30T09:28:52.840Z,2.60
2022-07-30T09:31:20.726Z,2.72
2022-07-30T09:33:47.967Z,3.20
2022-07-30T09:36:17.312Z,3.00
2022-07-30T09:38:53.915Z,3.35
2022-07-30T09:41:39.815Z,3.40
2022-07-30T09:44:07.347Z,2.60
2022-07-30T09:46:51.916Z,4.28
2022-07-30T09:49:21.187Z,3.60
2022-07-30T09:51:56.663Z,2.90
2022-07-30T09:54:51.163Z,4.10
2022-07-30T09:57:26.538Z,3.00
2022-07-30T09:59:59.932Z,2.40
2022-07-30T10:02:32.520Z,2.70
2022-07-30T10:05:15.624Z,2.65
2022-07-30T10:08:02.587Z,2.38
2022-07-30T10:10:31.716Z,2.30
2022-07-30T10:13:04.458Z,2.75
2022-07-30T10:15:38.038Z,2.25
2022-07-30T10:18:06.694Z,2.42
2022-07-30T10:20:35.634Z,2.42
2022-07-30T10:23:07.786Z,2.50
2022-07-30T10:25:49.676Z,2.40
2022-07-30T10:28:24.087Z,2.53
2022-07-30T10:30:56.090Z,2.33
2022-07-30T10:33:35.187Z,2.40
2022-07-30T10:36:04.947Z,2.40
2022-07-30T10:38:39.079Z,2.22
2022-07-30T10:41:44.541Z,2.70
2022-07-30T10:44:40.718Z,2.22
2022-07-30T10:47:14.098Z,2.15
2022-07-30T10:49:43.323Z,2.47
2022-07-30T10:52:10.848Z,2.60
2022-07-30T10:54:45.254Z,2.70
2022-07-30T10:57:22.584Z,2.40
2022-07-30T11:00:03.939Z,2.42
2022-07-30T11:02:35.401Z,2.30
2022-07-30T11:05:17.791Z,2.47
2022-07-30T11:07:47.365Z,2.50
2022-07-30T11:10:37.539Z,2.75
2022-07-30T11:13:09.682Z,2.40
2022-07-30T11:16:08.789Z,2.30
2022-07-30T11:19:56.707Z,2.50
2022-07-30T11:22:44.471Z,2.70
2022-07-30T11:25:50.212Z,2.72
2022-07-30T11:28:40.974Z,2.40
2022-07-30T11:31:30.599Z,2.42
2022-07-30T11:34:20.347Z,2.40
2022-07-30T11:37:19.130Z,2.40
2022-07-30T11:39:55.277Z,1.92
2022-07-30T11:42:29.021Z,2.53
2022-07-30T11:45:18.141Z,2.30
2022-07-30T11:47:50.190Z,2.45
2022-07-30T11:50:27.545Z,2.15
2022-07-30T11:53:02.191Z,2.25
2022-07-30T11:55:38.936Z,2.60
2022-07-30T11:58:08.703Z,2.30
2022-07-30T12:00:41.185Z,3.40
2022-07-30T12:03:11.476Z,4.00
2022-07-30T12:05:38.887Z,3.45
2022-07-30T12:08:06.287Z,3.35
2022-07-30T12:10:35.974Z,2.40
2022-07-30T12:13:16.543Z,2.33
2022-07-30T12:15:46.224Z,2.40
2022-07-30T12:18:29.473Z,2.60
2022-07-30T12:21:16.323Z,2.40
2022-07-30T12:24:10.344Z,2.60
2022-07-30T12:26:37.214Z,2.60
2022-07-30T12:29:13.625Z,2.60
2022-07-30T12:31:41.647Z,2.40
2022-07-30T12:34:25.265Z,2.47
2022-07-30T12:36:53.038Z,2.33
2022-07-30T12:39:25.269Z,2.42
2022-07-30T12:41:53.843Z,2.30
2022-07-30T12:44:40.753Z,2.47
2022-07-30T12:47:20.351Z,2.55
2022-07-30T12:49:49.884Z,2.35
2022-07-30T12:52:41.417Z,2.20
2022-07-30T12:55:11.566Z,2.85
2022-07-30T12:58:07.621Z,2.50
2022-07-30T13:00:44.157Z,2.25
2022-07-30T13:03:27.947Z,2.60
2022-07-30T13:05:56.552Z,2.38
2022-07-30T13:08:51.210Z,2.53
2022-07-30T13:11:19.912Z,2.55
2022-07-30T13:13:47.692Z,2.25
2022-07-30T13:16:14.845Z,2.53
2022-07-30T13:18:42.211Z,2.25
2022-07-30T13:21:09.362Z,2.78
2022-07-30T13:23:36.976Z,2.35
2022-07-30T13:26:03.961Z,2.55
2022-07-30T13:28:32.062Z,2.20
2022-07-30T13:30:58.953Z,2.60
2022-07-30T13:33:25.920Z,2.25
2022-07-30T13:35:52.921Z,2.20
2022-07-30T13:38:19.604Z,2.90
2022-07-30T13:40:46.210Z,2.50
2022-07-30T13:43:12.815Z,2.22
2022-07-30T13:45:39.434Z,2.40
2022-07-30T13:48:06.330Z,2.60
2022-07-30T13:50:33.744Z,2.45
2022-07-30T13:53:02.489Z,2.50
2022-07-30T13:55:29.937Z,2.47
2022-07-30T13:57:57.136Z,2.60
2022-07-30T14:00:24.705Z,2.53
2022-07-30T14:02:51.638Z,2.63
2022-07-30T14:05:18.345Z,2.53
2022-07-30T14:07:45.144Z,2.45
2022-07-30T14:10:13.180Z,2.50
2022-07-30T14:12:40.148Z,2.70
2022-07-30T14:15:07.557Z,2.58
2022-07-30T14:17:34.402Z,2.80
2022-07-30T14:20:01.298Z,2.38
2022-07-30T14:22:28.032Z,2.70
2022-07-30T14:24:54.923Z,2.72
2022-07-30T14:27:21.716Z,2.80
2022-07-30T14:29:48.889Z,2.60
2022-07-30T14:32:18.656Z,2.55
2022-07-30T14:34:49.501Z,2.38
2022-07-30T14:37:16.943Z,2.42
2022-07-30T14:39:43.984Z,2.17
2022-07-30T14:42:11.316Z,2.50
2022-07-30T14:44:37.980Z,2.40
2022-07-30T14:47:05.373Z,2.20
2022-07-30T14:49:32.236Z,3.03
2022-07-30T14:51:59.075Z,3.40
2022-07-30T14:54:27.879Z,2.95
2022-07-30T14:56:58.201Z,5.70
2022-07-30T14:59:27.542Z,6.97
2022-07-30T15:01:55.488Z,4.80
2022-07-30T15:04:23.112Z,3.58
2022-07-30T15:06:49.930Z,2.85
2022-07-30T15:09:21.492Z,2.35
2022-07-30T15:12:23.686Z,2.30
2022-07-30T15:14:38.123Z,2.58
2022-07-30T15:17:06.069Z,2.25
2022-07-30T15:19:33.942Z,2.20
2022-07-30T15:22:02.400Z,2.40
2022-07-30T15:24:30.451Z,2.40
2022-07-30T15:26:57.214Z,2.50
2022-07-30T15:29:24.355Z,2.70
2022-07-30T15:31:55.649Z,2.35
2022-07-30T15:34:22.525Z,2.22
2022-07-30T15:36:49.179Z,2.40
2022-07-30T15:39:15.831Z,2.00
2022-07-30T15:41:42.689Z,2.50
2022-07-30T15:44:09.271Z,2.22
2022-07-30T15:46:36.169Z,2.60
2022-07-30T15:49:03.359Z,2.53
2022-07-30T15:51:32.634Z,2.78
2022-07-30T15:53:59.820Z,2.45
2022-07-30T15:56:28.634Z,2.55
2022-07-30T15:58:58.771Z,2.40
2022-07-30T16:01:25.706Z,2.50
2022-07-30T16:03:54.724Z,2.63
2022-07-30T16:06:21.641Z,3.00
2022-07-30T16:08:48.323Z,2.78
2022-07-30T16:11:14.883Z,2.90
2022-07-30T16:13:42.749Z,2.60
2022-07-30T16:16:09.373Z,3.13
2022-07-30T16:18:35.949Z,2.70
2022-07-30T16:21:02.664Z,2.70
2022-07-30T16:23:36.261Z,3.17
2022-07-30T16:26:03.847Z,2.55
2022-07-30T16:28:31.064Z,3.08
2022-07-30T16:30:58.365Z,2.75
2022-07-30T16:33:25.027Z,2.80
2022-07-30T16:35:54.992Z,4.95
2022-07-30T16:38:23.271Z,4.70
2022-07-30T16:40:50.675Z,3.30
2022-07-30T16:43:19.722Z,3.40
2022-07-30T16:45:47.255Z,2.70
2022-07-30T16:48:14.057Z,2.42
2022-07-30T16:50:42.291Z,2.50
2022-07-30T16:53:13.784Z,2.60
2022-07-30T16:55:41.807Z,2.67
2022-07-30T16:58:09.312Z,2.53
2022-07-30T17:00:37.059Z,2.22
2022-07-30T17:03:04.129Z,2.15
2022-07-30T17:05:31.128Z,2.40
2022-07-30T17:07:58.379Z,2.20
2022-07-30T17:10:26.681Z,1.95
2022-07-30T17:12:57.050Z,2.28
2022-07-30T17:15:32.241Z,2.10
2022-07-30T17:18:03.135Z,2.20
2022-07-30T17:20:30.563Z,2.97
2022-07-30T17:22:57.517Z,2.80
2022-07-30T17:25:27.952Z,2.47
2022-07-30T17:27:58.538Z,2.42
2022-07-30T17:30:27.417Z,2.42
2022-07-30T17:32:54.206Z,2.65
2022-07-30T17:35:21.310Z,2.90
2022-07-30T17:37:48.020Z,2.85
2022-07-30T17:40:27.454Z,3.00
2022-07-30T17:43:03.520Z,2.92
2022-07-30T17:45:31.163Z,2.80
2022-07-30T17:47:58.018Z,2.28
2022-07-30T17:50:24.888Z,2.33
2022-07-30T17:52:51.614Z,3.67
2022-07-30T17:55:18.372Z,3.58
2022-07-30T17:57:45.135Z,2.22
2022-07-30T18:00:12.749Z,4.03
2022-07-30T18:02:39.503Z,3.60
2022-07-30T18:05:06.781Z,2.95
2022-07-30T18:07:33.497Z,2.22
2022-07-30T18:10:00.237Z,2.80
2022-07-30T18:12:27.073Z,3.20
2022-07-30T18:14:55.160Z,2.40
2022-07-30T18:17:21.959Z,2.50
2022-07-30T18:19:48.833Z,2.10
2022-07-30T18:22:16.026Z,2.55
2022-07-30T18:24:55.114Z,3.00
2022-07-30T18:27:21.943Z,7.63
2022-07-30T18:29:48.785Z,3.92
2022-07-30T18:32:15.710Z,2.67
2022-07-30T18:34:42.418Z,3.60
2022-07-30T18:37:10.227Z,3.38
2022-07-30T18:39:37.090Z,2.75
2022-07-30T18:42:04.452Z,4.25
2022-07-30T18:44:31.701Z,2.65
2022-07-30T18:46:58.663Z,2.67
2022-07-30T18:49:40.884Z,4.28
2022-07-30T18:52:08.053Z,4.00
2022-07-30T18:54:35.975Z,2.20
2022-07-30T18:57:02.682Z,2.50
2022-07-30T18:59:29.536Z,2.30
2022-07-30T19:01:56.169Z,2.42
2022-07-30T19:04:22.864Z,2.72
2022-07-30T19:06:49.514Z,2.70
2022-07-30T19:09:17.876Z,2.40
2022-07-30T19:11:47.986Z,2.60
2022-07-30T19:14:15.353Z,2.40
2022-07-30T19:16:44.052Z,2.38
2022-07-30T19:19:13.566Z,3.10
2022-07-30T19:21:40.733Z,3.08
2022-07-30T19:24:07.456Z,2.72
2022-07-30T19:26:34.143Z,3.25
2022-07-30T19:29:00.727Z,3.10
2022-07-30T19:31:27.321Z,2.50
2022-07-30T19:33:53.884Z,2.60
2022-07-30T19:36:23.288Z,2.63
2022-07-30T19:38:50.373Z,2.75
2022-07-30T19:41:17.042Z,2.80
2022-07-30T19:43:55.763Z,2.72
2022-07-30T19:46:25.277Z,2.55
2022-07-30T19:48:52.185Z,2.70
2022-07-30T19:51:20.523Z,2.60
2022-07-30T19:53:48.193Z,2.90
2022-07-30T19:56:14.956Z,2.75
2022-07-30T19:58:42.765Z,2.75
2022-07-30T20:01:14.419Z,2.63
2022-07-30T20:03:42.064Z,2.65
2022-07-30T20:06:15.397Z,2.45
2022-07-30T20:08:44.727Z,2.88
2022-07-30T20:11:14.064Z,3.05
2022-07-30T20:13:49.309Z,3.40
2022-07-30T20:16:17.513Z,2.80
2022-07-30T20:18:46.273Z,2.53
2022-07-30T20:21:15.593Z,2.83
2022-07-30T20:23:44.726Z,2.58
2022-07-30T20:26:16.876Z,2.88
2022-07-30T20:28:52.381Z,2.92
2022-07-30T20:31:19.685Z,3.05
2022-07-30T20:33:49.478Z,2.75
2022-07-30T20:36:18.121Z,2.50
2022-07-30T20:38:47.130Z,2.20
2022-07-30T20:41:14.673Z,2.55
2022-07-30T20:43:45.847Z,2.30
2022-07-30T20:46:13.839Z,2.33
2022-07-30T20:48:42.270Z,2.80
2022-07-30T20:51:11.683Z,2.88
2022-07-30T20:53:38.301Z,3.03
2022-07-30T20:56:05.078Z,2.60
2022-07-30T20:58:31.638Z,2.90
2022-07-30T21:01:00.598Z,2.70
2022-07-30T21:03:31.695Z,2.45
2022-07-30T21:05:58.852Z,2.70
2022-07-30T21:08:26.582Z,2.78
2022-07-30T21:10:53.509Z,2.63
2022-07-30T21:13:22.344Z,2.58
2022-07-30T21:16:01.916Z,2.70
2022-07-30T21:18:30.864Z,2.90
2022-07-30T21:20:57.749Z,2.70
2022-07-30T21:23:25.160Z,3.10
2022-07-30T21:26:00.393Z,2.80
2022-07-30T21:28:29.574Z,6.15
2022-07-30T21:30:57.211Z,3.78
2022-07-30T21:33:24.465Z,3.10
2022-07-30T21:35:57.932Z,2.90
2022-07-30T21:38:26.592Z,2.63
2022-07-30T21:40:53.542Z,2.53
2022-07-30T21:43:29.477Z,2.60
2022-07-30T21:46:00.122Z,2.67
2022-07-30T21:48:30.577Z,2.65
2022-07-30T21:50:58.413Z,2.55
2022-07-30T21:53:30.014Z,3.03
2022-07-30T21:56:12.335Z,4.30
2022-07-30T21:58:38.993Z,3.22
2022-07-30T22:01:20.173Z,2.75
2022-07-30T22:04:02.872Z,2.70
2022-07-30T22:06:35.342Z,2.55
2022-07-30T22:09:18.087Z,2.60
2022-07-30T22:11:46.504Z,2.85
2022-07-30T22:14:13.700Z,2.53
2022-07-30T22:19:29.204Z,3.42
2022-07-30T22:21:55.810Z,2.70
2022-07-30T22:24:29.431Z,2.67
2022-07-30T22:26:57.024Z,2.80
2022-07-30T22:29:27.667Z,2.60
2022-07-30T22:32:03.390Z,2.40
2022-07-30T22:34:30.695Z,2.67
2022-07-30T22:36:57.759Z,2.67
2022-07-30T22:39:32.804Z,2.47
2022-07-30T22:42:12.546Z,2.60
2022-07-30T22:44:39.448Z,2.40
2022-07-30T22:47:21.239Z,2.50
2022-07-30T22:49:59.029Z,2.50
2022-07-30T22:52:29.129Z,2.67
2022-07-30T22:54:58.724Z,2.60
2022-07-30T22:57:37.788Z,2.38
2022-07-30T23:00:07.275Z,2.92
2022-07-30T23:02:38.853Z,2.75
2022-07-30T23:05:06.578Z,2.70
2022-07-30T23:07:38.830Z,3.65
2022-07-30T23:10:16.966Z,2.72
2022-07-30T23:12:32.859Z,3.30
2022-07-30T23:12:47.283Z,2.60
2022-07-30T23:15:14.807Z,2.70
2022-07-30T23:17:41.614Z,3.28
2022-07-30T23:20:11.054Z,2.97
2022-07-30T23:22:38.174Z,3.05
2022-07-30T23:25:06.858Z,2.90
2022-07-30T23:27:34.143Z,3.10
2022-07-30T23:30:00.714Z,2.83
2022-07-30T23:32:27.404Z,2.75
2022-07-30T23:34:54.087Z,2.85
2022-07-30T23:37:20.755Z,3.17
2022-07-30T23:39:47.345Z,2.80
2022-07-30T23:42:14.021Z,2.72
2022-07-30T23:44:40.807Z,3.92
2022-07-30T23:47:07.455Z,3.50
2022-07-30T23:49:34.055Z,3.10
2022-07-30T23:52:00.602Z,2.83
2022-07-30T23:54:28.868Z,3.20
2022-07-30T23:56:56.351Z,2.47
2022-07-30T23:59:36.945Z,2.88
